Saugerties, NY

3:38 PM EDT on March 26, 2015 (GMT -0400)
Saugerties | Change Station
CLOSE
Current Station
Personal Weather Station
Location: Saugerties, NY
Elevation: 136 ft
Nearby Weather Stations

Elev 136 ft 42.04 °N, 73.95 °W | Updated 7 minutes ago

Overcast
Overcast
43.6 °F
Feels Like 44 °F
N
0.0
Wind Variable Wind from East
Gusts 1.0 mph

Today
High -- | Low -- °F
--% Chance of Precip.
Yesterday
High -- | Low -- °F
Precip. -- in
6:49 AM 7:14 PM
Waxing Crescent, 45% visible
Pressure 29.69 in
Visibility 1.8 miles
Clouds Overcast 1200 ft
Windchill 44 °F
Dew Point 41 °F
Humidity 90%
Rainfall 0.02 in
Snow Depth Not available.
UV 2 out of 12
Pollen 3.00 out of 12
Air Quality Not available.
Flu Activity Not available.
SPECI KPOU 261915Z 32003KT 1 3/4SM -RA OVC012 09/07 A2969 RMK AO2 P0001 T00940067

More Conditions Fewer Conditions

Pressure 29.69 in
Visibility 1.8 miles
Clouds Overcast 1200 ft
Windchill 44 °F
Dew Point 41 °F
Humidity 90%
Rainfall 0.02 in
Snow Depth Not available.
UV 2 out of 12
Pollen 3.00 out of 12
Air Quality Not available.
Flu Activity Not available.
SPECI KPOU 261915Z 32003KT 1 3/4SM -RA OVC012 09/07 A2969 RMK AO2 P0001 T00940067

More Conditions Fewer Conditions

10-Day Weather Forecast

Almanac

Astronomy

Mar. 26, 2015 Rise Set
Actual Time
Civil Twilight
Nautical Twilight
Astronomical Twilight
Moon
Length of Visible Light
Length of Day
Tomorrow will be .
, % of the Moon is Illuminated

Today's Extremes

State Highs State Lows

Community

WunderPhotos

Upload Photos

1,808,607 photos uploaded!

WunderBlogs® & News

Nearby

Air Quality

  Air Quality AQ Index Pollutant
Not available.

Snow Depth

Station Depth Elevation

Earthquake Activity

City Distance Mag. Time & Date
Minimum magnitude displayed is 2.5.

Coastal Water Temperatures

Place Temperature

Stations

Nearby Weather Stations

Station Location Temp. Windchill Dew Point Humidity Wind Precip. Elev Updated Type